createdAt,value
2017-08-25T00:01:16.227Z,95.70
2017-08-25T00:03:45.045Z,95.60
2017-08-25T00:06:14.258Z,95.60
2017-08-25T00:08:42.794Z,95.60
2017-08-25T00:11:11.625Z,95.70
2017-08-25T00:13:40.784Z,96.00
2017-08-25T00:16:09.227Z,95.90
2017-08-25T00:18:37.617Z,96.10
2017-08-25T00:21:06.575Z,96.10
2017-08-25T00:23:35.290Z,96.20
2017-08-25T00:26:03.680Z,96.10
2017-08-25T00:28:32.162Z,96.00
2017-08-25T00:31:00.603Z,96.40
2017-08-25T00:33:29.082Z,96.30
2017-08-25T00:35:57.934Z,96.50
2017-08-25T00:38:26.347Z,96.80
2017-08-25T00:40:54.784Z,96.80
2017-08-25T00:43:23.228Z,96.80
2017-08-25T00:45:51.629Z,96.60
2017-08-25T00:48:20.117Z,96.50
2017-08-25T00:50:48.562Z,96.50
2017-08-25T00:53:16.980Z,96.80
2017-08-25T00:55:45.485Z,96.80
2017-08-25T00:58:13.878Z,97.00
2017-08-25T01:00:43.029Z,97.00
2017-08-25T01:03:11.522Z,97.00
2017-08-25T01:05:40.456Z,97.00
2017-08-25T01:08:08.866Z,96.90
2017-08-25T01:10:37.344Z,97.00
2017-08-25T01:13:05.821Z,97.10
2017-08-25T01:15:34.639Z,97.10
2017-08-25T01:18:03.101Z,97.40
2017-08-25T01:20:31.532Z,97.10
2017-08-25T01:23:01.738Z,97.60
2017-08-25T01:25:30.755Z,97.50
2017-08-25T01:27:59.966Z,97.70
2017-08-25T01:30:28.396Z,97.70
2017-08-25T01:32:56.882Z,97.90
2017-08-25T01:35:25.309Z,97.90
2017-08-25T01:37:53.748Z,98.10
2017-08-25T01:40:22.238Z,98.30
2017-08-25T01:42:51.147Z,98.20
2017-08-25T01:45:19.575Z,98.50
2017-08-25T01:47:48.110Z,98.40
2017-08-25T01:50:16.596Z,98.40
2017-08-25T01:52:45.069Z,98.40
2017-08-25T01:55:13.599Z,98.40
2017-08-25T01:57:42.063Z,98.10
2017-08-25T02:00:10.826Z,98.00
2017-08-25T02:02:39.370Z,98.10
2017-08-25T02:05:07.823Z,98.10
2017-08-25T02:07:36.269Z,98.00
2017-08-25T02:10:04.698Z,98.10
2017-08-25T02:12:33.392Z,97.90
2017-08-25T02:15:02.319Z,98.10
2017-08-25T02:17:31.062Z,98.10
2017-08-25T02:19:59.514Z,98.20
2017-08-25T02:22:27.988Z,98.20
2017-08-25T02:24:56.780Z,98.20
2017-08-25T02:27:25.215Z,98.20
2017-08-25T02:29:53.661Z,98.10
2017-08-25T02:32:22.077Z,98.00
2017-08-25T02:34:51.220Z,98.20
2017-08-25T02:37:20.066Z,98.20
2017-08-25T02:39:49.260Z,98.40
2017-08-25T02:42:17.755Z,98.10
2017-08-25T02:44:46.221Z,98.10
2017-08-25T02:47:14.616Z,98.20
2017-08-25T02:49:43.024Z,98.20
2017-08-25T02:52:11.502Z,98.20
2017-08-25T02:54:39.948Z,98.30
2017-08-25T02:57:09.159Z,98.60
2017-08-25T02:59:37.595Z,98.60
2017-08-25T03:02:05.992Z,98.60
2017-08-25T03:04:34.415Z,98.60
2017-08-25T03:07:03.648Z,99.10
2017-08-25T03:09:32.053Z,99.00
2017-08-25T03:12:00.534Z,98.70
2017-08-25T03:14:28.928Z,99.10
2017-08-25T03:16:58.095Z,98.90
2017-08-25T03:19:26.543Z,98.90
2017-08-25T03:21:54.950Z,98.80
2017-08-25T03:24:23.401Z,98.80
2017-08-25T03:26:51.817Z,98.80
2017-08-25T03:29:20.226Z,98.90
2017-08-25T03:31:48.708Z,98.90
2017-08-25T03:34:17.108Z,99.00
2017-08-25T03:36:45.549Z,99.00
2017-08-25T03:39:15.195Z,98.90
2017-08-25T03:41:44.053Z,98.80
2017-08-25T03:44:13.283Z,99.30
2017-08-25T03:46:41.701Z,99.30
2017-08-25T03:49:10.099Z,99.40
2017-08-25T03:51:38.542Z,99.40
2017-08-25T03:54:06.918Z,99.70
2017-08-25T03:56:35.334Z,99.10
2017-08-25T03:59:03.814Z,99.30
2017-08-25T04:01:32.261Z,99.30
2017-08-25T04:04:00.724Z,99.20
2017-08-25T04:06:29.151Z,99.30
2017-08-25T04:08:57.603Z,99.40
2017-08-25T04:11:26.029Z,99.20
2017-08-25T04:13:54.893Z,99.10
2017-08-25T04:16:23.414Z,99.00
2017-08-25T04:18:51.829Z,99.70
2017-08-25T04:21:20.234Z,99.30
2017-08-25T04:23:49.034Z,99.30
2017-08-25T04:26:17.524Z,99.20
2017-08-25T04:28:45.964Z,99.00
2017-08-25T04:31:14.477Z,99.00
2017-08-25T04:33:42.924Z,99.20
2017-08-25T04:36:11.320Z,99.10
2017-08-25T04:38:39.828Z,99.20
2017-08-25T04:41:08.230Z,99.20
2017-08-25T04:43:36.659Z,99.00
2017-08-25T04:46:05.566Z,99.00
2017-08-25T04:48:34.459Z,99.00
2017-08-25T04:51:03.442Z,99.00
2017-08-25T04:53:31.949Z,98.90
2017-08-25T04:56:00.386Z,98.70
2017-08-25T04:58:28.852Z,98.70
2017-08-25T05:00:57.267Z,98.70
2017-08-25T05:03:25.819Z,98.60
2017-08-25T05:05:54.254Z,98.70
2017-08-25T05:08:23.428Z,98.50
2017-08-25T05:10:53.130Z,98.60
2017-08-25T05:13:21.578Z,98.20
2017-08-25T05:15:50.799Z,98.30
2017-08-25T05:18:19.950Z,98.30
2017-08-25T05:20:48.414Z,98.20
2017-08-25T05:23:17.200Z,98.10
2017-08-25T05:25:45.735Z,97.60
2017-08-25T05:28:14.173Z,97.80
2017-08-25T05:30:42.666Z,97.50
2017-08-25T05:33:11.129Z,97.30
2017-08-25T05:35:39.626Z,97.00
2017-08-25T05:38:08.484Z,97.20
2017-08-25T05:40:36.880Z,97.50
2017-08-25T05:43:06.366Z,97.50
2017-08-25T05:45:34.898Z,97.50
2017-08-25T05:48:03.851Z,97.50
2017-08-25T05:50:33.283Z,97.40
2017-08-25T05:53:01.682Z,97.50
2017-08-25T05:55:30.226Z,97.30
2017-08-25T05:57:59.714Z,96.80
2017-08-25T06:00:28.637Z,96.20
2017-08-25T06:02:57.502Z,96.00
2017-08-25T06:05:26.034Z,96.00
2017-08-25T06:07:54.427Z,95.60
2017-08-25T06:10:22.890Z,95.70
2017-08-25T06:12:52.569Z,96.20
2017-08-25T06:15:21.244Z,96.10
2017-08-25T06:17:49.649Z,95.60
2017-08-25T06:20:18.099Z,95.00
2017-08-25T06:22:47.092Z,94.60
2017-08-25T06:25:15.934Z,94.50
2017-08-25T06:27:44.417Z,94.80
2017-08-25T06:30:13.512Z,95.10
2017-08-25T06:32:41.956Z,95.20
2017-08-25T06:35:10.780Z,94.80
2017-08-25T06:37:39.261Z,94.50
2017-08-25T06:40:07.742Z,94.30
2017-08-25T06:42:36.218Z,93.70
2017-08-25T06:45:05.027Z,93.70
2017-08-25T06:47:33.477Z,94.20
2017-08-25T06:50:02.798Z,94.60
2017-08-25T06:52:31.970Z,94.80
2017-08-25T06:55:02.117Z,94.80
2017-08-25T06:57:31.071Z,94.80
2017-08-25T06:59:59.853Z,94.90
2017-08-25T07:02:28.381Z,94.70
2017-08-25T07:04:56.894Z,94.50
2017-08-25T07:07:26.174Z,94.10
2017-08-25T07:09:55.692Z,94.60
2017-08-25T07:12:25.575Z,93.70
2017-08-25T07:14:54.108Z,93.60
2017-08-25T07:17:22.572Z,92.90
2017-08-25T07:19:51.865Z,92.70
2017-08-25T07:22:20.804Z,92.70
2017-08-25T07:24:49.350Z,93.00
2017-08-25T07:27:18.659Z,92.80
2017-08-25T07:29:47.140Z,92.80
2017-08-25T07:32:16.888Z,92.50
2017-08-25T07:34:45.972Z,91.20
2017-08-25T07:37:14.686Z,90.30
2017-08-25T07:39:43.924Z,89.30
2017-08-25T07:42:12.374Z,87.70
2017-08-25T07:44:41.147Z,87.10
2017-08-25T07:47:10.151Z,88.20
2017-08-25T07:49:40.175Z,89.00
2017-08-25T07:52:08.755Z,88.80
2017-08-25T07:54:37.224Z,87.10
2017-08-25T07:57:06.095Z,86.60
2017-08-25T07:59:34.908Z,87.00
2017-08-25T08:02:03.327Z,86.80
2017-08-25T08:04:31.809Z,88.60
2017-08-25T08:07:00.654Z,88.20
2017-08-25T08:09:30.449Z,84.00
2017-08-25T08:11:58.963Z,84.00
2017-08-25T08:14:27.917Z,83.50
2017-08-25T08:16:56.907Z,83.30
2017-08-25T08:19:25.360Z,83.70
2017-08-25T08:21:53.785Z,83.80
2017-08-25T08:24:22.390Z,84.00
2017-08-25T08:26:50.809Z,80.30
2017-08-25T08:29:21.093Z,79.60
2017-08-25T08:31:49.566Z,78.00
2017-08-25T08:34:19.095Z,77.60
2017-08-25T08:36:48.034Z,78.20
2017-08-25T08:39:16.492Z,77.30
2017-08-25T08:41:48.925Z,77.20
2017-08-25T08:44:20.880Z,77.60
2017-08-25T08:46:49.461Z,75.80
2017-08-25T08:49:17.880Z,76.90
2017-08-25T08:51:46.318Z,77.10
2017-08-25T08:54:16.542Z,74.70
2017-08-25T08:56:45.432Z,75.50
2017-08-25T08:59:14.468Z,73.60
2017-08-25T09:01:43.369Z,71.80
2017-08-25T09:04:11.782Z,69.00
2017-08-25T09:06:41.471Z,68.00
2017-08-25T09:09:11.646Z,64.80
2017-08-25T09:11:40.979Z,66.60
2017-08-25T09:14:10.070Z,67.90
2017-08-25T09:16:46.235Z,67.40
2017-08-25T09:19:16.613Z,67.80
2017-08-25T09:21:46.731Z,67.10
2017-08-25T09:24:15.621Z,66.90
2017-08-25T09:26:45.989Z,66.30
2017-08-25T09:29:14.478Z,65.50
2017-08-25T09:31:43.279Z,66.70
2017-08-25T09:34:12.573Z,67.40
2017-08-25T09:36:41.064Z,63.90
2017-08-25T09:39:09.507Z,64.10
2017-08-25T09:41:37.965Z,62.70
2017-08-25T09:44:07.317Z,62.40
2017-08-25T09:46:36.265Z,59.70
2017-08-25T09:49:04.746Z,59.60
2017-08-25T09:51:34.030Z,59.10
2017-08-25T09:54:04.249Z,59.10
2017-08-25T09:56:32.820Z,59.50
2017-08-25T09:59:03.577Z,59.90
2017-08-25T10:01:32.924Z,60.00
2017-08-25T10:04:01.757Z,60.70
2017-08-25T10:06:31.007Z,58.80
2017-08-25T10:09:00.099Z,57.30
2017-08-25T10:11:28.587Z,57.70
2017-08-25T10:13:57.076Z,57.90
2017-08-25T10:16:26.505Z,56.70
2017-08-25T10:18:55.293Z,57.20
2017-08-25T10:21:23.811Z,57.30
2017-08-25T10:23:53.074Z,56.20
2017-08-25T10:26:22.738Z,57.00
2017-08-25T10:28:52.824Z,56.90
2017-08-25T10:31:21.249Z,55.10
2017-08-25T10:33:50.301Z,55.50
2017-08-25T10:36:31.281Z,53.70
2017-08-25T10:39:11.395Z,53.60
2017-08-25T10:41:52.090Z,53.20
2017-08-25T10:44:32.719Z,53.90
2017-08-25T10:47:02.081Z,52.80
2017-08-25T10:49:32.530Z,53.40
2017-08-25T10:52:01.520Z,54.50
2017-08-25T10:54:30.944Z,55.70
2017-08-25T10:56:59.493Z,52.60
2017-08-25T10:59:27.976Z,52.20
2017-08-25T11:01:57.094Z,53.20
2017-08-25T11:04:25.933Z,53.80
2017-08-25T11:06:56.098Z,54.30
2017-08-25T11:09:26.089Z,53.90
2017-08-25T11:11:55.431Z,55.10
2017-08-25T11:14:24.199Z,54.50
2017-08-25T11:16:53.690Z,54.60
2017-08-25T11:19:23.233Z,55.70
2017-08-25T11:21:52.218Z,55.40
2017-08-25T11:24:21.381Z,55.30
2017-08-25T11:26:56.169Z,54.50
2017-08-25T11:29:24.723Z,52.70
2017-08-25T11:31:53.216Z,52.00
2017-08-25T11:34:22.110Z,52.10
2017-08-25T11:36:51.305Z,52.10
2017-08-25T11:39:20.550Z,52.00
2017-08-25T11:41:51.865Z,51.60
2017-08-25T11:44:22.036Z,51.80
2017-08-25T11:46:50.605Z,49.80
2017-08-25T11:49:19.036Z,50.30
2017-08-25T11:51:48.117Z,51.00
2017-08-25T11:54:17.523Z,51.40
2017-08-25T11:56:45.937Z,51.80
2017-08-25T11:59:14.491Z,52.30
2017-08-25T12:01:43.056Z,51.90
2017-08-25T12:04:12.643Z,51.00
2017-08-25T12:06:41.832Z,52.20
2017-08-25T12:09:10.263Z,53.70
2017-08-25T12:11:39.503Z,53.20
2017-08-25T12:14:09.072Z,53.20
2017-08-25T12:16:37.656Z,55.30
2017-08-25T12:19:06.101Z,52.20
2017-08-25T12:21:34.630Z,51.20
2017-08-25T12:24:04.298Z,53.30
2017-08-25T12:26:34.128Z,53.50
2017-08-25T12:29:06.319Z,53.60
2017-08-25T12:31:34.781Z,51.60
2017-08-25T12:34:03.273Z,51.70
2017-08-25T12:36:31.829Z,51.50
2017-08-25T12:39:01.292Z,51.10
2017-08-25T12:41:30.138Z,51.00
2017-08-25T12:44:00.356Z,50.00
2017-08-25T12:46:28.925Z,50.50
2017-08-25T12:48:58.238Z,51.30
2017-08-25T12:51:27.508Z,53.60
2017-08-25T12:53:55.975Z,53.60
2017-08-25T12:56:24.409Z,52.70
2017-08-25T12:58:54.646Z,51.60
2017-08-25T13:01:23.116Z,50.30
2017-08-25T13:03:52.282Z,49.80
2017-08-25T13:06:22.642Z,51.00
2017-08-25T13:08:53.040Z,50.20
2017-08-25T13:11:21.436Z,50.20
2017-08-25T13:13:49.962Z,50.30
2017-08-25T13:16:22.479Z,49.40
2017-08-25T13:18:51.764Z,51.30
2017-08-25T13:21:21.272Z,51.30
2017-08-25T13:23:50.533Z,50.50
2017-08-25T13:26:19.361Z,50.70
2017-08-25T13:28:48.372Z,51.10
2017-08-25T13:31:18.320Z,51.60
2017-08-25T13:33:47.418Z,52.50
2017-08-25T13:36:15.897Z,52.90
2017-08-25T13:38:44.428Z,52.80
2017-08-25T13:41:13.837Z,53.10
2017-08-25T13:43:43.476Z,53.30
2017-08-25T13:46:11.970Z,54.30
2017-08-25T13:48:42.197Z,53.00
2017-08-25T13:51:12.395Z,51.70
2017-08-25T13:53:42.465Z,50.90
2017-08-25T13:56:11.707Z,50.30
2017-08-25T13:58:40.291Z,49.50
2017-08-25T14:01:10.142Z,49.70
2017-08-25T14:03:39.498Z,50.50
2017-08-25T14:06:08.435Z,51.30
2017-08-25T14:08:38.294Z,53.10
2017-08-25T14:11:08.126Z,52.60
2017-08-25T14:13:37.502Z,51.90
2017-08-25T14:16:06.370Z,52.30
2017-08-25T14:18:34.811Z,52.30
2017-08-25T14:21:04.085Z,51.60
2017-08-25T14:23:33.308Z,51.80
2017-08-25T14:26:01.812Z,51.60
2017-08-25T14:28:31.009Z,51.60
2017-08-25T14:31:00.502Z,51.30
2017-08-25T14:33:29.364Z,52.80
2017-08-25T14:35:58.896Z,53.70
2017-08-25T14:38:29.565Z,54.60
2017-08-25T14:40:58.123Z,54.60
2017-08-25T14:43:27.788Z,54.20
2017-08-25T14:46:00.761Z,53.60
2017-08-25T14:48:29.383Z,53.60
2017-08-25T14:50:58.605Z,53.60
2017-08-25T14:53:28.762Z,54.50
2017-08-25T14:55:57.851Z,55.10
2017-08-25T14:58:27.069Z,55.50
2017-08-25T15:00:55.931Z,55.10
2017-08-25T15:03:27.450Z,55.10
2017-08-25T15:05:56.831Z,55.00
2017-08-25T15:08:28.462Z,53.60
2017-08-25T15:10:57.428Z,53.50
2017-08-25T15:13:26.362Z,53.60
2017-08-25T15:15:54.896Z,54.50
2017-08-25T15:18:24.237Z,54.50
2017-08-25T15:20:52.663Z,54.70
2017-08-25T15:23:22.894Z,54.70
2017-08-25T15:25:55.325Z,54.80
2017-08-25T15:28:23.761Z,54.90
2017-08-25T15:30:52.716Z,54.40
2017-08-25T15:33:21.737Z,54.60
2017-08-25T15:35:50.157Z,54.50
2017-08-25T15:38:18.663Z,55.50
2017-08-25T15:40:47.089Z,55.00
2017-08-25T15:43:15.547Z,55.10
2017-08-25T15:45:44.775Z,55.40
2017-08-25T15:48:14.606Z,55.70
2017-08-25T15:50:44.034Z,55.30
2017-08-25T15:53:12.605Z,55.90
2017-08-25T15:55:41.080Z,55.90
2017-08-25T15:58:09.606Z,56.40
2017-08-25T16:00:38.067Z,56.70
2017-08-25T16:03:06.537Z,56.30
2017-08-25T16:05:35.383Z,57.60
2017-08-25T16:08:05.023Z,57.60
2017-08-25T16:10:33.487Z,57.70
2017-08-25T16:13:02.001Z,58.40
2017-08-25T16:15:30.814Z,58.70
2017-08-25T16:17:59.958Z,58.80
2017-08-25T16:20:28.682Z,58.90
2017-08-25T16:22:57.486Z,59.40
2017-08-25T16:25:26.621Z,59.20
2017-08-25T16:27:57.085Z,60.10
2017-08-25T16:30:26.462Z,60.10
2017-08-25T16:32:55.026Z,60.20
2017-08-25T16:35:23.874Z,60.50
2017-08-25T16:37:53.158Z,61.00
2017-08-25T16:40:22.195Z,61.00
2017-08-25T16:42:54.157Z,61.70
2017-08-25T16:45:23.005Z,62.00
2017-08-25T16:47:52.039Z,62.40
2017-08-25T16:50:20.458Z,63.10
2017-08-25T16:52:49.961Z,63.80
2017-08-25T16:55:18.812Z,64.20
2017-08-25T16:57:47.193Z,64.40
2017-08-25T17:00:15.596Z,64.70
2017-08-25T17:02:45.813Z,67.20
2017-08-25T17:05:15.002Z,68.00
2017-08-25T17:07:43.527Z,67.90
2017-08-25T17:10:12.599Z,73.10
2017-08-25T17:12:41.026Z,74.90
2017-08-25T17:15:09.517Z,78.30
2017-08-25T17:17:37.939Z,83.00
2017-08-25T17:20:06.569Z,85.40
2017-08-25T17:22:35.048Z,88.10
2017-08-25T17:25:03.564Z,90.30
2017-08-25T17:27:32.199Z,93.60
2017-08-25T17:30:00.690Z,95.00
2017-08-25T17:32:29.212Z,97.20
2017-08-25T17:34:57.591Z,96.40
2017-08-25T17:37:25.999Z,96.80
2017-08-25T17:39:54.476Z,97.50
2017-08-25T17:42:22.922Z,98.80
2017-08-25T17:44:51.346Z,98.60
2017-08-25T17:47:19.818Z,99.40
2017-08-25T17:49:48.693Z,97.20
2017-08-25T17:52:17.153Z,98.90
2017-08-25T17:54:45.698Z,98.90
2017-08-25T17:57:14.141Z,99.90
2017-08-25T17:59:42.606Z,99.60
2017-08-25T18:02:11.469Z,99.90
2017-08-25T18:04:40.159Z,99.80
2017-08-25T18:07:09.040Z,99.40
2017-08-25T18:09:37.504Z,99.30
2017-08-25T18:12:06.013Z,99.20
2017-08-25T18:14:35.007Z,99.30
2017-08-25T18:17:04.294Z,99.70
2017-08-25T18:19:32.686Z,99.70
2017-08-25T18:22:01.132Z,99.90
2017-08-25T18:24:29.557Z,99.90
2017-08-25T18:26:58.458Z,99.90
2017-08-25T18:29:26.971Z,99.90
2017-08-25T18:31:56.054Z,99.70
2017-08-25T18:34:24.501Z,98.60
2017-08-25T18:39:26.362Z,98.60
2017-08-25T18:41:54.790Z,98.90
2017-08-25T18:44:23.216Z,99.90
2017-08-25T18:46:52.912Z,99.60
2017-08-25T18:49:21.351Z,99.80
2017-08-25T18:51:49.772Z,99.90
2017-08-25T18:54:18.272Z,99.90
2017-08-25T18:56:47.480Z,99.90
2017-08-25T18:59:16.001Z,99.90
2017-08-25T19:01:44.835Z,99.90
2017-08-25T19:04:13.261Z,99.90
2017-08-25T19:06:41.733Z,99.90
2017-08-25T19:09:10.180Z,99.90
2017-08-25T19:11:39.518Z,99.90
2017-08-25T19:14:08.948Z,99.90
2017-08-25T19:16:37.360Z,99.90
2017-08-25T19:19:05.962Z,99.90
2017-08-25T19:21:35.185Z,99.90
2017-08-25T19:24:04.649Z,99.90
2017-08-25T19:26:33.969Z,99.90
2017-08-25T19:29:02.706Z,99.90
2017-08-25T19:31:31.136Z,99.90
2017-08-25T19:34:00.746Z,99.90
2017-08-25T19:36:29.994Z,99.90
2017-08-25T19:38:59.339Z,99.90
2017-08-25T19:41:27.746Z,99.90
2017-08-25T19:43:57.455Z,99.90
2017-08-25T19:46:25.851Z,99.90
2017-08-25T19:48:54.716Z,99.90
2017-08-25T19:51:23.288Z,99.90
2017-08-25T19:53:52.663Z,99.90
2017-08-25T19:56:21.528Z,99.90
2017-08-25T19:58:49.987Z,99.90
2017-08-25T20:01:18.449Z,99.90
2017-08-25T20:03:46.953Z,99.90
2017-08-25T20:06:15.713Z,99.90
2017-08-25T20:08:44.571Z,99.90
2017-08-25T20:11:13.067Z,99.90
2017-08-25T20:13:41.955Z,99.90
2017-08-25T20:16:10.715Z,99.90
2017-08-25T20:18:39.169Z,99.90
2017-08-25T20:21:07.619Z,99.90
2017-08-25T20:23:36.790Z,99.90
2017-08-25T20:26:05.365Z,99.90
2017-08-25T20:28:33.849Z,99.90
2017-08-25T20:31:02.659Z,99.90
2017-08-25T20:33:31.945Z,99.90
2017-08-25T20:36:01.588Z,99.90
2017-08-25T20:38:30.079Z,99.90
2017-08-25T20:40:58.513Z,99.90
2017-08-25T20:43:26.951Z,99.90
2017-08-25T20:45:57.221Z,99.90
2017-08-25T20:48:25.645Z,99.90
2017-08-25T20:50:54.137Z,99.90
2017-08-25T20:53:22.543Z,99.90
2017-08-25T20:55:51.027Z,99.90
2017-08-25T20:58:19.899Z,99.90
2017-08-25T21:00:48.654Z,99.90
2017-08-25T21:03:17.102Z,99.90
2017-08-25T21:05:45.561Z,99.90
2017-08-25T21:08:15.332Z,99.90
2017-08-25T21:10:43.757Z,99.90
2017-08-25T21:13:12.182Z,99.90
2017-08-25T21:15:41.347Z,99.90
2017-08-25T21:18:09.814Z,99.90
2017-08-25T21:20:38.696Z,99.90
2017-08-25T21:23:07.074Z,99.90
2017-08-25T21:25:36.683Z,99.90
2017-08-25T21:28:05.655Z,99.90
2017-08-25T21:30:34.125Z,99.90
2017-08-25T21:33:02.606Z,99.90
2017-08-25T21:35:31.081Z,99.90
2017-08-25T21:37:59.497Z,99.90
2017-08-25T21:40:27.890Z,99.90
2017-08-25T21:42:56.717Z,99.90
2017-08-25T21:45:25.133Z,99.90
2017-08-25T21:47:53.781Z,99.90
2017-08-25T21:50:22.282Z,99.90
2017-08-25T21:52:51.022Z,99.90
2017-08-25T21:55:20.239Z,99.90
2017-08-25T21:57:48.708Z,99.90
2017-08-25T22:00:17.593Z,99.90
2017-08-25T22:02:46.795Z,99.90
2017-08-25T22:05:15.746Z,99.90
2017-08-25T22:07:44.262Z,99.90
2017-08-25T22:10:12.717Z,99.90
2017-08-25T22:12:41.092Z,99.90
2017-08-25T22:15:10.300Z,99.90
2017-08-25T22:17:39.096Z,99.90
2017-08-25T22:20:08.481Z,99.90
2017-08-25T22:22:36.900Z,99.90
2017-08-25T22:25:05.306Z,99.90
2017-08-25T22:27:34.240Z,99.90
2017-08-25T22:30:03.070Z,99.90
2017-08-25T22:32:31.977Z,99.90
2017-08-25T22:35:00.383Z,99.90
2017-08-25T22:37:28.778Z,99.90
2017-08-25T22:39:57.613Z,99.90
2017-08-25T22:42:26.019Z,99.90
2017-08-25T22:44:54.419Z,99.90
2017-08-25T22:47:22.889Z,99.90
2017-08-25T22:49:51.327Z,99.90
2017-08-25T22:52:20.090Z,99.90
2017-08-25T22:54:48.460Z,99.90
2017-08-25T22:57:16.952Z,99.90
2017-08-25T22:59:46.306Z,99.90
2017-08-25T23:02:15.050Z,99.90
2017-08-25T23:04:43.501Z,99.90
2017-08-25T23:07:12.330Z,99.90
2017-08-25T23:09:40.740Z,99.90
2017-08-25T23:12:09.167Z,99.90
2017-08-25T23:14:37.997Z,99.90
2017-08-25T23:17:06.443Z,99.90
2017-08-25T23:19:34.843Z,99.90
2017-08-25T23:22:04.012Z,99.90
2017-08-25T23:24:32.496Z,99.90
2017-08-25T23:27:00.873Z,99.90
2017-08-25T23:29:30.093Z,99.90
2017-08-25T23:31:58.502Z,99.90
2017-08-25T23:34:26.961Z,99.90
2017-08-25T23:36:56.134Z,99.90
2017-08-25T23:39:24.868Z,99.90
2017-08-25T23:41:53.314Z,99.90
2017-08-25T23:44:21.743Z,99.90
2017-08-25T23:46:50.166Z,99.90
2017-08-25T23:49:18.590Z,99.90
2017-08-25T23:51:47.017Z,99.90
2017-08-25T23:54:16.250Z,99.90
2017-08-25T23:56:45.511Z,99.90
2017-08-25T23:59:15.116Z,99.90
